Time;durP1;ratioP1;P1;durP2;ratioP2;P2;SDS_P1;SDS_P2;PMS_P1;PMS_P2;Temp;Humidity;BMP_temperature;BMP_pressure;BME280_temperature;BME280_humidity;BME280_pressure;Samples;Min_cycle;Max_cycle;Signal;HPM_P1;HPM_P2
2024/04/26 00:01:34;;;;;;;13.77;5.25;;;;;;;11.76;56.26;99750.66;5379458;26;20605;-61
2024/04/26 00:04:01;;;;;;;12.60;4.85;;;;;;;12.01;55.63;99743.97;5402002;26;20014;-61
2024/04/26 00:06:29;;;;;;;12.07;4.60;;;;;;;11.95;55.99;99742.63;5405447;26;20539;-61
2024/04/26 00:08:56;;;;;;;15.20;4.80;;;;;;;11.98;56.05;99738.34;5360064;26;20335;-61
2024/04/26 00:11:24;;;;;;;10.02;4.40;;;;;;;11.92;56.01;99732.28;5443569;26;20031;-61
2024/04/26 00:13:52;;;;;;;11.93;5.00;;;;;;;12.00;55.89;99730.53;5398862;26;20121;-61
2024/04/26 00:16:19;;;;;;;13.73;5.00;;;;;;;11.91;56.24;99727.91;5443913;26;20457;-61
2024/04/26 00:18:47;;;;;;;11.55;4.82;;;;;;;11.95;56.28;99733.53;5415531;26;20932;-60
2024/04/26 00:21:14;;;;;;;12.52;5.07;;;;;;;11.74;57.01;99730.09;5440167;26;20013;-62
2024/04/26 00:23:42;;;;;;;17.20;4.57;;;;;;;11.63;57.57;99732.47;5349635;26;20795;-60
2024/04/26 00:26:10;;;;;;;11.95;5.20;;;;;;;11.82;56.88;99726.41;5421529;26;20092;-61
2024/04/26 00:28:37;;;;;;;16.08;5.22;;;;;;;12.00;56.23;99733.28;5445090;26;19999;-61
2024/04/26 00:31:05;;;;;;;14.43;4.50;;;;;;;11.87;56.72;99723.44;5439599;26;20030;-62
2024/04/26 00:33:32;;;;;;;11.27;4.82;;;;;;;11.87;56.55;99723.44;5402713;26;20017;-61
2024/04/26 00:36:00;;;;;;;11.40;4.45;;;;;;;11.94;56.95;99726.41;5409697;26;20449;-61
2024/04/26 00:38:27;;;;;;;14.75;4.78;;;;;;;11.90;56.74;99723.53;5470955;26;20015;-61
2024/04/26 00:40:55;;;;;;;14.55;4.95;;;;;;;11.80;56.96;99720.44;5445185;26;20003;-60
2024/04/26 00:43:22;;;;;;;13.73;4.70;;;;;;;11.81;57.34;99722.03;5446109;26;20493;-61
2024/04/26 00:45:49;;;;;;;10.48;4.10;;;;;;;11.86;56.92;99711.56;5405476;26;20008;-61
2024/04/26 00:48:17;;;;;;;11.82;4.60;;;;;;;11.82;56.99;99721.69;5432017;26;19999;-61
2024/04/26 00:50:45;;;;;;;9.75;4.07;;;;;;;11.66;57.94;99715.28;5433240;26;20014;-61
2024/04/26 00:53:12;;;;;;;14.27;4.75;;;;;;;11.52;58.27;99713.97;5411607;26;20012;-60
2024/04/26 00:55:42;;;;;;;11.13;4.82;;;;;;;11.70;58.31;99713.41;5481761;26;19998;-61
2024/04/26 00:58:11;;;;;;;9.75;4.43;;;;;;;11.37;59.08;99725.69;5481364;26;19998;-60
2024/04/26 01:00:41;;;;;;;13.75;4.93;;;;;;;11.47;58.88;99708.69;5430339;26;20000;-60
2024/04/26 01:03:09;;;;;;;11.13;4.53;;;;;;;11.51;59.09;99715.09;5410104;26;20001;-61
2024/04/26 01:05:36;;;;;;;10.80;4.75;;;;;;;11.52;58.87;99713.97;5375681;26;20005;-61
2024/04/26 01:08:04;;;;;;;11.82;4.80;;;;;;;11.42;59.12;99717.97;5413734;26;20003;-64
2024/04/26 01:10:31;;;;;;;13.68;4.82;;;;;;;11.45;59.15;99714.53;5443614;26;20017;-62
2024/04/26 01:13:04;;;;;;;13.93;5.20;;;;;;;11.26;60.04;99709.56;5414604;26;20848;-61
2024/04/26 01:15:31;;;;;;;12.93;4.53;;;;;;;11.23;60.51;99706.69;5445900;26;20001;-61
2024/04/26 01:17:59;;;;;;;13.30;4.95;;;;;;;11.26;60.06;99711.53;5445688;26;19998;-62
2024/04/26 01:20:27;;;;;;;10.27;4.15;;;;;;;11.14;60.84;99706.78;5413330;26;20001;-63
2024/04/26 01:22:54;;;;;;;10.77;4.55;;;;;;;11.30;60.66;99716.00;5404934;26;20011;-62
2024/04/26 01:25:22;;;;;;;9.98;4.75;;;;;;;11.33;60.08;99712.56;5414070;26;20007;-62
2024/04/26 01:27:49;;;;;;;11.48;5.10;;;;;;;11.26;60.57;99712.31;5413354;26;20724;-62
2024/04/26 01:30:19;;;;;;;12.02;5.28;;;;;;;11.36;59.93;99711.09;5409032;26;20081;-62
2024/04/26 01:32:47;;;;;;;13.82;5.40;;;;;;;11.03;61.55;99713.09;5409395;26;20501;-62
2024/04/26 01:35:14;;;;;;;10.93;4.68;;;;;;;11.04;61.97;99711.94;5409615;26;21041;-62
2024/04/26 01:37:43;;;;;;;14.52;5.55;;;;;;;11.06;61.98;99709.63;5409314;26;20025;-61
2024/04/26 01:40:10;;;;;;;12.20;5.43;;;;;;;11.15;61.25;99711.16;5443170;26;20002;-62
2024/04/26 01:42:37;;;;;;;12.55;5.13;;;;;;;11.10;61.92;99708.63;5413450;26;19999;-63
2024/04/26 01:45:04;;;;;;;9.80;5.57;;;;;;;11.18;61.41;99713.22;5445360;26;20013;-62
2024/04/26 01:47:32;;;;;;;12.40;5.57;;;;;;;11.24;61.22;99711.84;5444443;26;20030;-62
2024/04/26 01:50:00;;;;;;;11.70;5.25;;;;;;;11.22;61.26;99711.41;5415571;26;20009;-62
2024/04/26 01:52:27;;;;;;;12.48;4.88;;;;;;;11.10;61.39;99705.06;5390344;26;19994;-62
2024/04/26 01:54:54;;;;;;;14.80;5.38;;;;;;;11.25;61.05;99705.22;5442361;26;20584;-63
2024/04/26 01:57:22;;;;;;;11.43;5.30;;;;;;;11.13;61.90;99707.13;5391684;26;19995;-62
2024/04/26 01:59:49;;;;;;;12.07;4.82;;;;;;;11.08;61.53;99702.66;5441807;26;20522;-63
2024/04/26 02:02:16;;;;;;;12.80;5.00;;;;;;;10.96;61.99;99708.13;5411441;26;19999;-62
2024/04/26 02:04:44;;;;;;;11.20;5.20;;;;;;;11.02;62.43;99704.00;5410457;26;20800;-64
2024/04/26 02:07:11;;;;;;;12.43;5.63;;;;;;;11.05;62.31;99700.56;5442525;26;20009;-61
2024/04/26 02:09:39;;;;;;;12.35;5.68;;;;;;;11.07;61.77;99708.50;5413714;26;19998;-61
2024/04/26 02:12:07;;;;;;;13.55;5.43;;;;;;;11.14;61.36;99703.25;5442021;26;19999;-62
2024/04/26 02:14:36;;;;;;;9.38;4.78;;;;;;;11.08;61.70;99699.09;5443941;26;20013;-62
2024/04/26 02:17:03;;;;;;;12.02;4.55;;;;;;;11.16;61.93;99700.94;5444901;26;19995;-62
2024/04/26 02:19:31;;;;;;;12.20;4.90;;;;;;;11.22;61.00;99697.63;5406755;26;20025;-62
2024/04/26 02:21:58;;;;;;;12.63;5.38;;;;;;;11.32;61.45;99707.38;5413441;26;20013;-62
2024/04/26 02:24:25;;;;;;;13.95;5.28;;;;;;;11.20;61.23;99701.88;5413233;26;20082;-63
2024/04/26 02:26:53;;;;;;;12.65;4.85;;;;;;;11.28;61.05;99707.28;5438813;26;20017;-63
2024/04/26 02:29:21;;;;;;;11.73;4.70;;;;;;;11.32;60.84;99704.63;5436975;26;20002;-63
2024/04/26 02:31:48;;;;;;;11.77;5.15;;;;;;;11.41;60.37;99707.28;5377450;26;20358;-62
2024/04/26 02:34:16;;;;;;;9.40;4.38;;;;;;;11.23;60.89;99704.75;5408616;26;19996;-62
2024/04/26 02:36:43;;;;;;;11.15;4.57;;;;;;;11.26;60.75;99708.78;5407777;26;20031;-63
2024/04/26 02:39:11;;;;;;;15.98;4.78;;;;;;;11.29;60.91;99710.84;5394654;26;19995;-64
2024/04/26 02:41:39;;;;;;;10.27;5.10;;;;;;;11.33;60.84;99701.53;5442956;26;20013;-63
2024/04/26 02:44:07;;;;;;;15.85;4.90;;;;;;;11.42;60.27;99706.16;5445104;26;19999;-62
2024/04/26 02:46:34;;;;;;;10.98;5.05;;;;;;;11.41;60.36;99704.53;5375141;26;20003;-62
2024/04/26 02:49:02;;;;;;;13.18;4.72;;;;;;;11.38;60.54;99704.06;5405605;26;20003;-62
2024/04/26 02:51:30;;;;;;;9.40;4.40;;;;;;;11.52;59.63;99697.41;5409173;26;20006;-63
2024/04/26 02:53:58;;;;;;;11.25;4.50;;;;;;;11.37;59.77;99701.66;5444050;26;20003;-63
2024/04/26 02:56:25;;;;;;;10.48;4.75;;;;;;;11.12;60.91;99689.78;5444171;26;20450;-63
2024/04/26 02:58:53;;;;;;;9.85;4.80;;;;;;;11.10;61.07;99699.56;5411995;26;19998;-62
2024/04/26 03:01:20;;;;;;;8.45;4.05;;;;;;;11.29;60.35;99694.31;5443156;26;20007;-63
2024/04/26 03:03:48;;;;;;;14.27;4.70;;;;;;;11.41;59.62;99702.59;5376260;26;19996;-62
2024/04/26 03:06:15;;;;;;;11.60;4.35;;;;;;;11.12;60.72;99700.81;5376510;26;20014;-64
2024/04/26 03:08:43;;;;;;;10.70;4.45;;;;;;;11.14;61.35;99698.50;5408709;26;19996;-63
2024/04/26 03:11:12;;;;;;;12.88;5.20;;;;;;;10.76;62.33;99703.47;5377421;26;19999;-63
2024/04/26 03:13:42;;;;;;;14.23;5.53;;;;;;;10.66;63.13;99703.09;5377221;26;20013;-62
2024/04/26 03:16:09;;;;;;;10.38;4.40;;;;;;;10.89;62.89;99693.28;5428630;26;20021;-62
2024/04/26 03:18:37;;;;;;;11.70;4.38;;;;;;;11.06;62.40;99693.09;5444189;26;20002;-62
2024/04/26 03:21:05;;;;;;;12.43;5.03;;;;;;;11.10;61.92;99688.53;5394039;26;20000;-62
2024/04/26 03:23:32;;;;;;;11.52;4.50;;;;;;;11.06;61.74;99693.09;5377045;26;19999;-62
2024/04/26 03:26:00;;;;;;;10.30;4.90;;;;;;;11.04;62.10;99698.16;5391693;26;19999;-63
2024/04/26 03:28:27;;;;;;;13.73;4.93;;;;;;;11.02;62.51;99698.50;5443585;26;20334;-63
2024/04/26 03:30:54;;;;;;;11.48;4.97;;;;;;;10.95;62.96;99698.25;5413172;26;19998;-63
2024/04/26 03:33:22;;;;;;;10.43;4.75;;;;;;;10.90;62.95;99700.41;5440325;26;19999;-62
2024/04/26 03:35:50;;;;;;;11.05;5.05;;;;;;;10.99;63.06;99696.44;5410212;26;20002;-62
2024/04/26 03:38:17;;;;;;;10.68;4.97;;;;;;;11.04;62.82;99689.88;5441145;26;19998;-65
2024/04/26 03:40:44;;;;;;;15.30;5.28;;;;;;;11.06;62.42;99696.66;5443493;26;19999;-63
2024/04/26 03:43:16;;;;;;;8.20;4.50;;;;;;;11.18;62.48;99693.94;5442919;26;20438;-63
2024/04/26 03:45:44;;;;;;;13.43;6.00;;;;;;;10.94;62.81;99696.66;5437259;26;20003;-63
2024/04/26 03:48:12;;;;;;;10.50;5.28;;;;;;;10.98;63.21;99702.28;5375300;26;20002;-63
2024/04/26 03:50:40;;;;;;;14.45;5.60;;;;;;;11.33;62.23;99690.50;5370344;26;20000;-63
2024/04/26 03:53:07;;;;;;;16.17;5.57;;;;;;;11.09;62.33;99695.97;5408547;26;20597;-62
2024/04/26 03:55:34;;;;;;;10.35;5.75;;;;;;;11.21;62.39;99693.25;5409920;26;20121;-62
2024/04/26 03:58:04;;;;;;;12.32;5.30;;;;;;;11.08;62.75;99694.38;5414984;26;19996;-62
2024/04/26 04:00:33;;;;;;;13.13;5.78;;;;;;;10.94;62.81;99691.13;5452336;26;19995;-63
2024/04/26 04:03:00;;;;;;;12.15;5.35;;;;;;;10.82;63.50;99684.78;5441895;26;20009;-62
2024/04/26 04:05:28;;;;;;;10.43;5.53;;;;;;;10.68;64.54;99692.53;5442747;26;20017;-63
2024/04/26 04:07:56;;;;;;;13.80;5.38;;;;;;;10.54;65.14;99698.34;5441567;26;20504;-62
2024/04/26 04:10:23;;;;;;;15.05;5.63;;;;;;;10.59;65.30;99694.56;5444226;26;20004;-63
2024/04/26 04:12:50;;;;;;;13.57;5.68;;;;;;;10.52;65.82;99694.31;5435140;26;20002;-63
2024/04/26 04:15:18;;;;;;;11.60;6.40;;;;;;;10.58;64.99;99691.03;5446687;26;20126;-63
2024/04/26 04:17:45;;;;;;;14.25;6.18;;;;;;;10.90;64.86;99689.38;5445596;26;20884;-63
2024/04/26 04:20:13;;;;;;;10.85;5.80;;;;;;;10.85;64.48;99692.34;5385538;26;20009;-63
2024/04/26 04:22:40;;;;;;;15.18;6.05;;;;;;;10.69;64.63;99697.69;5446050;26;19999;-63
2024/04/26 04:25:08;;;;;;;16.38;5.85;;;;;;;10.74;64.48;99696.72;5440286;26;20007;-64
2024/04/26 04:27:35;;;;;;;14.55;6.10;;;;;;;10.87;64.51;99692.81;5415040;26;20014;-63
2024/04/26 04:30:03;;;;;;;18.33;6.18;;;;;;;11.12;64.00;99697.25;5412718;26;20508;-62
2024/04/26 04:32:30;;;;;;;13.75;6.10;;;;;;;11.23;63.30;99703.94;5410113;26;20006;-63
2024/04/26 04:34:58;;;;;;;15.15;6.60;;;;;;;10.73;64.28;99695.88;5410524;26;20014;-63
2024/04/26 04:37:25;;;;;;;15.38;6.35;;;;;;;10.79;65.12;99699.25;5409139;26;20007;-62
2024/04/26 04:39:53;;;;;;;13.65;6.05;;;;;;;11.11;63.98;99701.97;5437532;26;20009;-63
2024/04/26 04:42:20;;;;;;;18.38;6.68;;;;;;;10.74;65.26;99700.25;5379675;26;20000;-64
2024/04/26 04:44:47;;;;;;;13.05;6.53;;;;;;;10.26;67.04;99708.28;5410543;26;20000;-63
2024/04/26 04:47:15;;;;;;;17.25;6.97;;;;;;;10.34;67.13;99709.38;5410272;26;20026;-64
2024/04/26 04:49:42;;;;;;;16.98;6.60;;;;;;;10.41;67.19;99710.44;5436569;26;20010;-63
2024/04/26 04:52:10;;;;;;;14.77;6.72;;;;;;;10.38;67.33;99711.09;5406452;26;20004;-62
2024/04/26 04:54:39;;;;;;;15.07;6.28;;;;;;;10.35;67.38;99708.22;5377528;26;20021;-63
2024/04/26 04:57:06;;;;;;;11.55;6.28;;;;;;;10.48;67.52;99707.16;5441698;26;20035;-63
2024/04/26 04:59:34;;;;;;;14.63;6.38;;;;;;;10.74;66.64;99697.50;5414284;26;20003;-63
2024/04/26 05:02:01;;;;;;;14.88;6.75;;;;;;;10.68;66.08;99701.63;5386219;26;20088;-64
2024/04/26 05:04:29;;;;;;;18.50;7.57;;;;;;;10.48;66.98;99696.94;5442785;26;20002;-64
2024/04/26 05:06:57;;;;;;;21.27;7.30;;;;;;;10.81;66.27;99702.47;5413437;26;20013;-63
2024/04/26 05:09:24;;;;;;;19.98;6.90;;;;;;;10.64;66.54;99705.38;5437587;26;19998;-65
2024/04/26 05:11:51;;;;;;;13.82;6.40;;;;;;;10.69;66.80;99710.66;5445067;26;20587;-63
2024/04/26 05:14:19;;;;;;;14.18;6.68;;;;;;;10.69;66.56;99708.72;5414354;26;20003;-65
2024/04/26 05:16:46;;;;;;;17.27;7.18;;;;;;;10.53;67.31;99710.47;5423908;26;20005;-64
2024/04/26 05:19:14;;;;;;;17.40;6.57;;;;;;;10.66;67.59;99712.16;5454133;26;20003;-64
2024/04/26 05:21:41;;;;;;;15.18;6.90;;;;;;;10.71;67.11;99716.63;5377383;26;19999;-64
2024/04/26 05:24:08;;;;;;;15.60;7.50;;;;;;;10.68;67.15;99720.88;5410057;26;20833;-64
2024/04/26 05:26:36;;;;;;;15.43;6.95;;;;;;;10.46;67.71;99721.22;5434686;26;20007;-63
2024/04/26 05:29:03;;;;;;;14.20;6.88;;;;;;;10.51;68.21;99729.31;5445796;26;20516;-63
2024/04/26 05:31:30;;;;;;;14.60;7.32;;;;;;;10.34;68.31;99723.91;5445396;26;20015;-63
2024/04/26 05:33:58;;;;;;;15.27;7.30;;;;;;;10.41;68.91;99723.41;5445623;26;20017;-63
2024/04/26 05:36:25;;;;;;;12.70;6.57;;;;;;;10.44;68.60;99723.53;5404805;26;19999;-63
2024/04/26 05:38:53;;;;;;;14.40;7.20;;;;;;;10.80;67.62;99725.63;5402634;26;19998;-61
2024/04/26 05:41:20;;;;;;;14.68;7.28;;;;;;;10.92;67.12;99729.25;5437924;26;20006;-61
2024/04/26 05:43:48;;;;;;;17.52;7.38;;;;;;;10.98;66.42;99733.38;5349273;26;20010;-62
2024/04/26 05:46:15;;;;;;;17.15;7.57;;;;;;;10.71;67.58;99736.72;5442914;26;20028;-61
2024/04/26 05:48:43;;;;;;;13.63;6.90;;;;;;;10.94;67.12;99737.16;5443987;26;19995;-62
2024/04/26 05:51:13;;;;;;;16.90;8.10;;;;;;;11.08;66.43;99732.97;5412971;26;19995;-61
2024/04/26 05:53:41;;;;;;;17.23;7.90;;;;;;;10.76;67.18;99735.72;5441317;26;20017;-62
2024/04/26 05:56:09;;;;;;;15.70;7.60;;;;;;;10.89;67.63;99737.38;5411075;26;20017;-61
2024/04/26 05:58:38;;;;;;;13.75;7.63;;;;;;;10.99;67.26;99737.75;5409869;26;20032;-62
2024/04/26 06:01:07;;;;;;;16.35;8.38;;;;;;;10.84;67.87;99740.34;5411493;26;20353;-62
2024/04/26 06:03:36;;;;;;;17.73;8.73;;;;;;;10.86;67.24;99736.09;5405449;26;20024;-61
2024/04/26 06:06:09;;;;;;;14.65;8.10;;;;;;;10.95;68.02;99744.28;5422390;26;20014;-62
2024/04/26 06:08:37;;;;;;;14.07;7.15;;;;;;;11.17;66.62;99741.13;5433715;26;20132;-62
2024/04/26 06:11:05;;;;;;;16.63;8.27;;;;;;;11.12;67.34;99741.34;5410850;26;20000;-62
2024/04/26 06:13:33;;;;;;;16.98;7.95;;;;;;;11.06;66.73;99739.94;5427186;26;20009;-60
2024/04/26 06:16:05;;;;;;;21.70;8.07;;;;;;;11.24;66.21;99739.41;5445086;26;19995;-62
2024/04/26 06:18:34;;;;;;;17.88;9.18;;;;;;;11.53;65.89;99741.19;5376805;26;20004;-62
2024/04/26 06:21:02;;;;;;;18.30;8.20;;;;;;;11.59;65.00;99739.03;5352645;26;20003;-62
2024/04/26 06:23:30;;;;;;;21.23;8.82;;;;;;;11.51;65.73;99740.72;5442895;26;20003;-61
2024/04/26 06:25:58;;;;;;;14.90;8.30;;;;;;;11.56;65.75;99748.78;5437176;26;20469;-63
2024/04/26 06:28:26;;;;;;;15.07;8.88;;;;;;;11.14;66.46;99739.06;5443272;26;20002;-62
2024/04/26 06:30:53;;;;;;;20.90;8.50;;;;;;;11.38;65.96;99753.69;5402480;26;20007;-61
2024/04/26 06:33:20;;;;;;;21.80;8.68;;;;;;;11.55;66.12;99751.88;5407197;26;19998;-62
2024/04/26 06:35:48;;;;;;;50.95;27.42;;;;;;;11.63;65.20;99749.00;5478772;26;20002;-61
2024/04/26 06:38:16;;;;;;;27.05;12.50;;;;;;;11.58;65.54;99754.75;5432138;26;20009;-64
2024/04/26 06:40:43;;;;;;;23.02;10.13;;;;;;;11.61;65.19;99751.31;5395551;26;19999;-62
2024/04/26 06:43:13;;;;;;;20.90;9.23;;;;;;;11.47;65.66;99753.63;5436386;26;20017;-62
2024/04/26 06:45:41;;;;;;;25.08;9.35;;;;;;;11.45;66.57;99750.38;5416999;26;20438;-61
2024/04/26 06:48:08;;;;;;;20.13;8.95;;;;;;;11.59;66.63;99761.09;5434385;26;20006;-61
2024/04/26 06:50:36;;;;;;;17.70;8.90;;;;;;;11.73;65.63;99762.41;5365316;26;20015;-63
2024/04/26 06:53:04;;;;;;;22.52;8.90;;;;;;;11.85;65.08;99764.34;5430253;26;20002;-64
2024/04/26 06:55:31;;;;;;;18.60;9.43;;;;;;;11.79;65.34;99774.81;5424085;26;20013;-63
2024/04/26 06:57:59;;;;;;;25.48;10.27;;;;;;;11.65;65.76;99766.06;5443936;26;20308;-62
2024/04/26 07:00:27;;;;;;;22.30;8.98;;;;;;;11.58;66.29;99768.53;5423943;26;20010;-65
2024/04/26 07:02:54;;;;;;;22.48;9.90;;;;;;;11.62;66.19;99772.25;5433735;26;20000;-64
2024/04/26 07:05:22;;;;;;;21.55;9.80;;;;;;;11.71;66.03;99767.47;5458133;26;19999;-64
2024/04/26 07:07:49;;;;;;;19.85;9.85;;;;;;;11.63;65.72;99775.81;5455582;26;19998;-63
2024/04/26 07:10:17;;;;;;;21.23;10.63;;;;;;;11.52;66.57;99774.63;5452456;26;20011;-66
2024/04/26 07:12:44;;;;;;;22.67;10.65;;;;;;;11.61;66.11;99778.88;5478838;26;20024;-64
2024/04/26 07:15:12;;;;;;;18.60;10.25;;;;;;;11.91;65.46;99771.22;5461599;26;20016;-65
2024/04/26 07:17:42;;;;;;;24.35;9.77;;;;;;;12.03;65.37;99774.03;5456732;26;20009;-67
2024/04/26 07:20:10;;;;;;;20.98;9.35;;;;;;;12.13;64.85;99770.78;5436985;26;20012;-64
2024/04/26 07:22:38;;;;;;;31.88;15.02;;;;;;;12.22;64.81;99771.47;5463081;26;20884;-64
2024/04/26 07:25:23;;;;;;;18.98;9.93;;;;;;;12.19;64.14;99772.13;5422614;26;20295;-66
2024/04/26 07:27:51;;;;;;;18.90;9.45;;;;;;;12.26;64.13;99773.19;5428259;26;20483;-65
2024/04/26 07:30:19;;;;;;;28.25;11.25;;;;;;;12.29;63.46;99774.44;5464844;26;20012;-65
2024/04/26 07:32:47;;;;;;;18.77;10.25;;;;;;;12.11;64.94;99781.38;5362690;26;20018;-66
2024/04/26 07:35:14;;;;;;;20.27;10.80;;;;;;;12.23;64.42;99782.16;5420460;26;20584;-64
2024/04/26 07:37:42;;;;;;;24.85;10.60;;;;;;;12.48;64.16;99780.16;5438136;26;20000;-62
2024/04/26 07:40:09;;;;;;;21.13;10.55;;;;;;;12.59;63.74;99769.44;5389883;26;20004;-63
2024/04/26 07:42:37;;;;;;;22.60;10.93;;;;;;;12.59;63.11;99774.97;5478385;26;20787;-66
2024/04/26 07:45:04;;;;;;;24.20;11.52;;;;;;;12.51;63.21;99776.69;5450553;26;19999;-63
2024/04/26 07:47:32;;;;;;;21.63;10.10;;;;;;;12.60;62.68;99771.84;5459104;26;20009;-62
2024/04/26 07:50:00;;;;;;;22.35;10.43;;;;;;;12.79;62.46;99774.78;5467042;26;20589;-63
2024/04/26 07:52:28;;;;;;;20.00;10.40;;;;;;;13.04;61.78;99776.31;5443658;26;20015;-63
2024/04/26 07:54:56;;;;;;;23.38;10.50;;;;;;;13.26;60.81;99775.75;5414254;26;20033;-63
2024/04/26 07:57:25;;;;;;;39.97;21.77;;;;;;;13.49;59.66;99776.75;5386525;26;20003;-63
2024/04/26 07:59:54;;;;;;;25.65;10.30;;;;;;;13.46;59.02;99777.47;5353659;26;19996;-62
2024/04/26 08:02:21;;;;;;;21.23;10.40;;;;;;;13.74;58.39;99771.06;5447912;26;20013;-63
2024/04/26 08:04:49;;;;;;;17.33;9.90;;;;;;;13.79;57.28;99768.03;5458841;26;19994;-64
2024/04/26 08:07:16;;;;;;;29.27;10.38;;;;;;;13.77;56.10;99776.69;5473357;26;19998;-63
2024/04/26 08:09:47;;;;;;;18.20;9.77;;;;;;;14.02;55.96;99771.75;5449771;26;20013;-63
2024/04/26 08:12:14;;;;;;;21.20;9.63;;;;;;;13.94;55.47;99775.53;5376280;26;20010;-63
2024/04/26 08:14:42;;;;;;;18.15;9.85;;;;;;;14.04;55.43;99769.44;5438155;26;19994;-63
2024/04/26 08:17:10;;;;;;;22.27;9.65;;;;;;;14.20;54.17;99762.72;5446419;26;20391;-63
2024/04/26 08:19:38;;;;;;;23.00;10.05;;;;;;;14.31;53.29;99758.22;5418377;26;20004;-64
2024/04/26 08:22:05;;;;;;;22.27;9.27;;;;;;;14.52;52.74;99766.25;5456467;26;19999;-62
2024/04/26 08:24:33;;;;;;;16.65;8.60;;;;;;;14.46;52.59;99756.59;5458700;26;20009;-63
2024/04/26 08:27:10;;;;;;;19.60;8.93;;;;;;;14.52;51.66;99758.72;5442509;26;20017;-64
2024/04/26 08:29:38;;;;;;;12.93;7.90;;;;;;;14.66;50.46;99761.78;5420384;26;20008;-63
2024/04/26 08:32:06;;;;;;;14.80;7.38;;;;;;;14.51;49.25;99762.66;5424829;26;20002;-65
2024/04/26 08:34:33;;;;;;;39.53;10.43;;;;;;;14.91;49.50;99764.28;5457700;26;20406;-75
2024/04/26 08:37:01;;;;;;;17.13;8.15;;;;;;;14.73;47.74;99761.16;5409584;26;20086;-64
2024/04/26 08:39:30;;;;;;;16.92;7.30;;;;;;;14.97;48.14;99766.41;5481041;26;19998;-63
2024/04/26 08:42:01;;;;;;;22.85;8.00;;;;;;;15.35;48.05;99760.00;5432469;26;20013;-64
2024/04/26 08:44:29;;;;;;;16.02;7.90;;;;;;;15.22;47.97;99762.13;5448120;26;20002;-63
2024/04/26 08:46:57;;;;;;;20.02;8.25;;;;;;;15.37;47.66;99763.22;5377030;26;20411;-65
2024/04/26 08:49:27;;;;;;;17.27;7.95;;;;;;;15.48;48.13;99773.38;5405904;26;20010;-67
2024/04/26 08:51:54;;;;;;;17.83;8.32;;;;;;;15.53;47.78;99764.72;5468024;26;19999;-65
2024/04/26 08:54:22;;;;;;;26.40;7.85;;;;;;;15.81;47.38;99770.00;5451996;26;20008;-65
2024/04/26 08:56:56;;;;;;;11.88;7.38;;;;;;;15.83;46.73;99761.28;5393339;26;19999;-66
2024/04/26 08:59:48;;;;;;;12.65;7.93;;;;;;;16.11;45.43;99768.09;5447243;26;20002;-64
2024/04/26 09:02:16;;;;;;;18.67;7.68;;;;;;;15.79;46.06;99767.56;5437396;26;20009;-65
2024/04/26 09:04:49;;;;;;;18.92;7.40;;;;;;;15.83;46.40;99770.41;5427764;26;20002;-67
2024/04/26 09:07:17;;;;;;;22.42;8.27;;;;;;;15.87;46.79;99779.59;5474889;26;20004;-65
2024/04/26 09:09:44;;;;;;;15.60;7.43;;;;;;;15.98;47.17;99772.25;5482374;26;20843;-66
2024/04/26 09:12:12;;;;;;;16.50;8.70;;;;;;;15.83;47.68;99775.19;5445185;26;20002;-68
2024/04/26 09:14:39;;;;;;;15.38;8.07;;;;;;;15.90;48.79;99769.75;5443956;26;19999;-67
2024/04/26 09:17:11;;;;;;;24.65;9.70;;;;;;;16.21;48.83;99773.03;5444562;26;19999;-65
2024/04/26 09:19:39;;;;;;;22.45;10.07;;;;;;;15.98;49.48;99774.22;5415097;26;20010;-65
2024/04/26 09:22:07;;;;;;;18.75;9.43;;;;;;;15.84;49.70;99771.22;5459903;26;20007;-63
2024/04/26 09:24:35;;;;;;;18.65;8.35;;;;;;;16.20;48.00;99773.38;5450146;26;20007;-65
2024/04/26 09:27:05;;;;;;;17.63;8.13;;;;;;;16.05;47.62;99777.13;5462497;26;20360;-66
2024/04/26 09:29:35;;;;;;;15.10;8.30;;;;;;;15.80;47.61;99779.47;5422984;26;19999;-66
2024/04/26 09:32:04;;;;;;;14.88;7.63;;;;;;;16.04;46.71;99781.09;5423453;26;20010;-64
2024/04/26 09:34:50;;;;;;;14.98;6.93;;;;;;;16.27;45.28;99774.28;5419615;26;19995;-67
2024/04/26 09:37:19;;;;;;;13.13;6.68;;;;;;;16.26;44.33;99769.13;5451613;26;20009;-64
2024/04/26 09:39:47;;;;;;;12.90;6.00;;;;;;;16.39;43.80;99776.84;5465743;26;20253;-64
2024/04/26 09:42:22;;;;;;;13.40;6.75;;;;;;;16.38;43.30;99778.06;5441285;26;19994;-63
2024/04/26 09:44:51;;;;;;;14.27;6.30;;;;;;;16.40;43.85;99769.31;5476677;26;19998;-62
2024/04/26 09:47:20;;;;;;;17.40;6.78;;;;;;;16.50;44.43;99771.50;5440724;26;20016;-63
2024/04/26 09:49:49;;;;;;;14.88;6.97;;;;;;;16.49;44.08;99776.22;5437695;26;20010;-65
2024/04/26 09:52:16;;;;;;;17.15;7.03;;;;;;;16.35;42.81;99769.66;5408798;26;20007;-64
2024/04/26 09:54:45;;;;;;;14.90;6.80;;;;;;;16.33;42.90;99778.38;5417491;26;20017;-66
2024/04/26 09:57:13;;;;;;;15.90;8.45;;;;;;;16.42;43.06;99780.88;5458016;26;19999;-62
2024/04/26 09:59:41;;;;;;;14.60;8.88;;;;;;;16.52;43.29;99772.72;5469210;26;20005;-63
2024/04/26 10:02:12;;;;;;;17.60;8.63;;;;;;;16.63;42.74;99776.44;5474364;26;20009;-63
2024/04/26 10:04:41;;;;;;;13.40;7.32;;;;;;;16.71;42.43;99771.78;5476766;26;19994;-62
2024/04/26 10:07:19;;;;;;;14.38;7.28;;;;;;;16.67;42.05;99777.28;5458544;26;19999;-65
2024/04/26 10:10:00;;;;;;;13.55;6.68;;;;;;;16.66;42.30;99772.94;5416695;26;20002;-63
2024/04/26 10:12:29;;;;;;;15.75;7.82;;;;;;;16.73;42.15;99778.59;5411809;26;20003;-62
2024/04/26 10:15:07;;;;;;;16.70;8.32;;;;;;;16.64;41.50;99775.28;5445888;26;19998;-64
2024/04/26 10:17:49;;;;;;;17.13;7.90;;;;;;;16.39;41.99;99787.97;5449098;26;19994;-66
2024/04/26 10:20:20;;;;;;;18.63;8.57;;;;;;;16.06;42.87;99776.75;5440531;26;20446;-65
2024/04/26 10:22:59;;;;;;;20.15;8.43;;;;;;;16.61;41.74;99780.78;5481775;26;20397;-64
2024/04/26 10:25:27;;;;;;;15.10;7.35;;;;;;;16.54;41.92;99773.16;5406423;26;20449;-65
2024/04/26 10:28:06;;;;;;;17.05;7.90;;;;;;;16.41;41.50;99768.94;5426806;26;20005;-66
2024/04/26 10:30:33;;;;;;;22.30;8.23;;;;;;;16.43;42.02;99769.38;5408315;26;19998;-65
2024/04/26 10:33:01;;;;;;;16.48;8.60;;;;;;;16.65;42.68;99770.50;5419451;26;20003;-65
2024/04/26 10:35:28;;;;;;;26.92;12.40;;;;;;;16.57;41.76;99768.81;5475109;26;20004;-66
2024/04/26 10:37:59;;;;;;;22.52;11.30;;;;;;;16.67;41.30;99768.13;5419619;26;20012;-66
2024/04/26 10:40:27;;;;;;;21.00;11.05;;;;;;;16.78;41.75;99772.69;5381654;26;20004;-65
2024/04/26 10:42:55;;;;;;;21.85;10.18;;;;;;;17.04;41.96;99766.25;5386240;26;19999;-64
2024/04/26 10:45:22;;;;;;;18.58;10.02;;;;;;;17.32;40.99;99762.97;5412227;26;20008;-66
2024/04/26 10:47:53;;;;;;;19.73;10.48;;;;;;;17.12;40.36;99765.13;5367240;26;20003;-65
2024/04/26 10:50:21;;;;;;;20.15;8.35;;;;;;;17.14;40.33;99767.56;5448874;26;20126;-66
2024/04/26 10:52:48;;;;;;;16.63;7.13;;;;;;;17.28;39.65;99762.13;5456252;26;20014;-64
2024/04/26 10:55:16;;;;;;;13.65;8.00;;;;;;;17.48;39.87;99756.03;5443417;26;20019;-65
2024/04/26 10:57:54;;;;;;;15.10;7.50;;;;;;;17.42;40.12;99762.28;5412606;26;20002;-63
2024/04/26 11:00:22;;;;;;;12.52;7.20;;;;;;;17.48;39.92;99753.25;5445142;26;20690;-62
2024/04/26 11:02:49;;;;;;;17.77;7.95;;;;;;;17.69;39.48;99759.03;5454736;26;20009;-64
2024/04/26 11:05:18;;;;;;;13.15;7.40;;;;;;;17.32;39.37;99751.84;5450467;26;19998;-73
2024/04/26 11:07:56;;;;;;;16.85;7.30;;;;;;;17.29;40.31;99756.22;5398666;26;19998;-62
2024/04/26 11:10:30;;;;;;;14.30;8.27;;;;;;;17.42;39.95;99760.31;5415522;26;20007;-62
2024/04/26 11:12:57;;;;;;;21.88;10.07;;;;;;;17.20;39.71;99763.25;5449425;26;19994;-62
2024/04/26 11:15:24;;;;;;;13.73;7.22;;;;;;;17.39;40.51;99758.28;5381420;26;20000;-62
2024/04/26 11:17:52;;;;;;;15.32;7.72;;;;;;;17.37;40.16;99757.06;5411610;26;20000;-63
2024/04/26 11:20:20;;;;;;;17.58;7.60;;;;;;;17.44;40.97;99757.94;5467230;26;20799;-62
2024/04/26 11:22:48;;;;;;;14.85;8.05;;;;;;;17.60;40.18;99752.97;5454394;26;19998;-63
2024/04/26 11:25:15;;;;;;;14.93;8.32;;;;;;;17.63;39.41;99751.38;5449277;26;20003;-62
2024/04/26 11:27:42;;;;;;;29.83;21.67;;;;;;;17.61;39.22;99749.00;5460806;26;19998;-72
2024/04/26 11:30:13;;;;;;;22.73;12.25;;;;;;;17.81;40.17;99747.59;5454308;26;19999;-61